Chemehuevi, California
Current Conditions -  °F | °C
As of 7:56 PM on Thursday 18 Dec 2014 (Local Time) from KEED Reporting Station
Clear Clear  
Wind Chill: 52°   Ceiling: Unl
Heat Index: 52°   Visibility: 10mi
Dew Point: 42°   Wind: 7mph
Humidity: 69%   Direction: 270°W
Pressure: 30.19"   Gusts: NA
Location:  34.5025°N, 114.671°W
Report Text: KEED 190356Z AUTO 27006KT 10SM CLR 11/06 A3019 RMK AO2 SLP215 T01110056
Loading
Personal Weather Stations






























Interactive Weather Map New forecast layout! Learn more

10-Day Weather Forecast

Advertisements
Track Severe Weather on mobile